createdAt,value
2022-12-13T14:21:55.212Z,92046.03
2022-12-13T14:25:20.984Z,92040.28
2022-12-13T14:28:37.957Z,92038.00
2022-12-13T14:31:43.407Z,92039.19
2022-12-13T14:34:47.173Z,92040.50
2022-12-13T14:37:59.862Z,92043.09
2022-12-13T14:41:05.924Z,92041.16
2022-12-13T14:44:15.760Z,92035.09
2022-12-13T14:47:19.748Z,92032.75
2022-12-13T14:50:23.114Z,92029.25
2022-12-13T14:53:29.791Z,92030.28
2022-12-13T14:56:32.673Z,92032.16
2022-12-13T14:59:35.767Z,92032.66
2022-12-13T15:02:38.636Z,92036.97
2022-12-13T15:05:50.525Z,92040.13
2022-12-13T15:09:20.265Z,92039.06
2022-12-13T15:12:25.869Z,92033.34
2022-12-13T15:15:32.203Z,92039.19
2022-12-13T15:18:36.153Z,92030.53
2022-12-13T15:21:42.373Z,92032.41
2022-12-13T15:24:52.032Z,92037.22
2022-12-13T15:33:05.225Z,92037.28
2022-12-13T15:36:11.475Z,92033.47
2022-12-13T15:39:18.303Z,92038.91
2022-12-13T15:42:26.604Z,92036.66
2022-12-13T15:45:36.626Z,92031.44
2022-12-13T15:48:48.874Z,92036.88
2022-12-13T15:51:58.794Z,92037.56
2022-12-13T15:55:03.996Z,92033.88
2022-12-13T15:58:25.648Z,92023.22
2022-12-13T16:01:29.811Z,92026.41
2022-12-13T16:04:34.429Z,92028.13
2022-12-13T16:07:39.911Z,92028.44
2022-12-13T16:10:48.198Z,92022.69
2022-12-13T16:13:52.457Z,92013.91
2022-12-13T16:17:43.427Z,92012.88
2022-12-13T16:20:46.414Z,91997.34
2022-12-13T16:23:49.349Z,92008.94
2022-12-13T16:26:52.137Z,92005.91
2022-12-13T16:29:54.956Z,92004.91
2022-12-13T16:36:22.030Z,91998.22
2022-12-13T16:39:25.066Z,91998.47
2022-12-13T16:42:27.669Z,91996.19
2022-12-13T16:45:41.473Z,91995.63
2022-12-13T16:48:46.170Z,91981.81
2022-12-13T16:51:49.452Z,91995.63
2022-12-13T16:54:53.170Z,91993.25
2022-12-13T16:57:56.827Z,91996.19
2022-12-13T17:01:01.894Z,91996.19
2022-12-13T17:04:12.761Z,92000.31
2022-12-13T17:07:16.727Z,91990.41
2022-12-13T17:10:19.620Z,91990.59
2022-12-13T17:13:22.307Z,91982.06
2022-12-13T17:16:25.081Z,91977.47
2022-12-13T17:19:29.479Z,91970.28
2022-12-13T17:22:33.508Z,91970.34
2022-12-13T17:25:38.781Z,91971.69
2022-12-13T17:28:41.577Z,91973.50
2022-12-13T17:31:44.782Z,91963.63
2022-12-13T17:34:48.857Z,91953.75
2022-12-13T17:37:51.537Z,91951.94
2022-12-13T17:40:55.048Z,91948.81
2022-12-13T17:43:59.413Z,91955.09
2022-12-13T17:47:02.954Z,91947.47
2022-12-13T17:50:08.943Z,91945.25
2022-12-13T17:53:11.805Z,91930.31
2022-12-13T17:56:16.191Z,91940.97
2022-12-13T17:59:19.316Z,91933.91
2022-12-13T18:02:23.115Z,91936.78
2022-12-13T18:05:27.275Z,91934.94
2022-12-13T18:08:30.120Z,91932.06
2022-12-13T18:11:34.164Z,91941.47
2022-12-13T18:14:37.534Z,91935.22
2022-12-13T18:18:12.879Z,91940.13
2022-12-13T18:21:18.874Z,91944.56
2022-12-13T18:24:21.629Z,91944.31
2022-12-13T18:27:24.289Z,91944.78
2022-12-13T18:30:28.121Z,91944.66
2022-12-13T18:33:31.155Z,91947.31
2022-12-13T18:36:35.241Z,91949.94
2022-12-13T18:39:37.937Z,91950.19
2022-12-13T18:42:46.158Z,91952.72
2022-12-13T18:45:48.974Z,91951.56
2022-12-13T18:48:51.626Z,91947.16
2022-12-13T18:51:55.841Z,91940.47
2022-12-13T18:55:24.142Z,91942.81
2022-12-13T18:58:29.379Z,91947.03
2022-12-13T19:01:32.550Z,91950.19
2022-12-13T19:04:35.737Z,91947.06
2022-12-13T19:07:39.769Z,91959.88
2022-12-13T19:10:45.543Z,91956.19
2022-12-13T19:13:48.748Z,91954.19
2022-12-13T19:16:51.454Z,91968.16
2022-12-13T19:19:54.116Z,91959.84
2022-12-13T19:22:58.223Z,91952.13
2022-12-13T19:26:05.241Z,91964.63
2022-12-13T19:29:08.030Z,91930.72
2022-12-13T19:32:10.691Z,91956.84
2022-12-13T19:35:13.362Z,91931.47
2022-12-13T19:38:17.621Z,91952.63
2022-12-13T19:41:20.339Z,91938.75
2022-12-13T19:44:23.071Z,91942.16
2022-12-13T19:47:25.833Z,91929.91
